Time;durP1;ratioP1;P1;durP2;ratioP2;P2;SDS_P1;SDS_P2;PMS_P1;PMS_P2;Temp;Humidity;BMP_temperature;BMP_pressure;BME280_temperature;BME280_humidity;BME280_pressure;Samples;Min_cycle;Max_cycle;Signal;HPM_P1;HPM_P2
2023/08/29 00:01:07;;;;;;;3.55;1.40;;;13.30;99.90;;;;;;5052849;28;20102;-74
2023/08/29 00:03:33;;;;;;;7.53;1.30;;;13.30;99.90;;;;;;5053033;28;20045;-74
2023/08/29 00:06:05;;;;;;;4.38;1.38;;;13.30;99.90;;;;;;5053266;28;20472;-75
2023/08/29 00:08:34;;;;;;;3.25;1.73;;;13.20;99.90;;;;;;5053987;28;20049;-75
2023/08/29 00:11:02;;;;;;;6.43;2.22;;;13.20;99.90;;;;;;5052720;28;20106;-74
2023/08/29 00:13:28;;;;;;;3.70;1.58;;;13.20;99.90;;;;;;5052807;28;20194;-74
2023/08/29 00:15:55;;;;;;;5.57;1.70;;;13.10;99.90;;;;;;5052824;28;20092;-74
2023/08/29 00:18:21;;;;;;;7.05;2.35;;;13.10;99.90;;;;;;5052495;28;20056;-74
2023/08/29 00:20:47;;;;;;;5.20;2.50;;;13.10;99.90;;;;;;5052516;28;20179;-74
2023/08/29 00:23:12;;;;;;;8.43;2.40;;;13.10;99.90;;;;;;5052517;28;20131;-74
2023/08/29 00:25:38;;;;;;;9.20;2.38;;;13.10;99.90;;;;;;5053833;28;20515;-74
2023/08/29 00:28:04;;;;;;;6.13;2.20;;;13.20;99.90;;;;;;5052701;28;20041;-74
2023/08/29 00:30:37;;;;;;;6.00;2.20;;;13.20;99.90;;;;;;5053682;28;20053;-74
2023/08/29 00:33:03;;;;;;;6.25;2.40;;;13.20;99.90;;;;;;5052503;28;20404;-74
2023/08/29 00:35:29;;;;;;;6.28;3.17;;;13.20;99.90;;;;;;5053105;28;20102;-74
2023/08/29 00:37:55;;;;;;;8.48;3.60;;;13.20;99.90;;;;;;5052054;28;20048;-74
2023/08/29 00:40:21;;;;;;;8.95;3.47;;;13.20;99.90;;;;;;5052533;28;20041;-74
2023/08/29 00:42:47;;;;;;;6.88;3.15;;;13.20;99.90;;;;;;5052421;28;20496;-74
2023/08/29 00:45:13;;;;;;;6.38;3.20;;;13.20;99.90;;;;;;5052410;28;20037;-74
2023/08/29 00:47:40;;;;;;;7.70;3.38;;;13.20;99.90;;;;;;5052218;28;20083;-75
2023/08/29 00:50:09;;;;;;;7.63;3.78;;;13.20;99.90;;;;;;5052164;28;20503;-75
2023/08/29 00:52:35;;;;;;;10.88;4.03;;;13.20;99.90;;;;;;5053349;28;20476;-74
2023/08/29 00:55:02;;;;;;;7.43;3.53;;;13.20;99.90;;;;;;5052272;28;20052;-74
2023/08/29 00:57:28;;;;;;;9.57;3.47;;;13.10;99.90;;;;;;5051887;28;20041;-74
2023/08/29 00:59:53;;;;;;;6.78;3.58;;;13.10;99.90;;;;;;5052540;28;20110;-74
2023/08/29 01:02:22;;;;;;;7.03;3.50;;;13.10;99.90;;;;;;5052284;28;20052;-74
2023/08/29 01:04:47;;;;;;;8.80;3.70;;;13.00;99.90;;;;;;5052032;28;20045;-74
2023/08/29 01:07:13;;;;;;;10.35;3.85;;;13.00;99.90;;;;;;5052401;28;20045;-74
2023/08/29 01:09:39;;;;;;;7.00;4.07;;;13.00;99.90;;;;;;5052418;28;20468;-74
2023/08/29 01:12:16;;;;;;;6.60;3.40;;;13.00;99.90;;;;;;5052413;28;20397;-74
2023/08/29 01:14:48;;;;;;;7.93;4.40;;;13.00;99.90;;;;;;5052089;28;20053;-74
2023/08/29 01:17:24;;;;;;;7.30;3.70;;;13.00;99.90;;;;;;5053551;28;20045;-74
2023/08/29 01:19:52;;;;;;;7.43;3.78;;;12.90;99.90;;;;;;5052162;28;20053;-74
2023/08/29 01:22:46;;;;;;;10.48;3.88;;;12.90;99.90;;;;;;5052001;28;20053;-74
2023/08/29 01:25:17;;;;;;;;;;;12.90;99.90;;;;;;5052487;28;20044;-74
2023/08/29 01:27:44;;;;;;;7.95;3.97;;;12.90;99.90;;;;;;5051903;28;19958;-74
2023/08/29 01:30:10;;;;;;;9.13;4.10;;;12.90;99.90;;;;;;5051845;28;20045;-74
2023/08/29 01:32:37;;;;;;;8.27;3.58;;;12.90;99.90;;;;;;5051818;28;20369;-74
2023/08/29 01:35:06;;;;;;;7.97;4.00;;;12.80;99.90;;;;;;5052223;28;20087;-74
2023/08/29 01:37:31;;;;;;;8.35;4.35;;;12.80;99.90;;;;;;5053337;28;20045;-74
2023/08/29 01:39:57;;;;;;;11.00;5.10;;;12.90;99.90;;;;;;5051668;28;20389;-74
2023/08/29 01:42:22;;;;;;;11.77;5.13;;;12.90;99.90;;;;;;5051718;28;20048;-74
2023/08/29 01:44:48;;;;;;;9.05;4.13;;;12.80;99.90;;;;;;5051782;28;20048;-74
2023/08/29 01:47:15;;;;;;;15.77;5.40;;;12.80;99.90;;;;;;5051915;28;20052;-75
2023/08/29 01:49:42;;;;;;;9.38;4.82;;;12.80;99.90;;;;;;5053037;28;20057;-74
2023/08/29 01:52:08;;;;;;;10.13;4.38;;;12.80;99.90;;;;;;5052893;28;20378;-74
2023/08/29 01:54:34;;;;;;;9.27;4.40;;;12.80;99.90;;;;;;5051599;28;20511;-74
2023/08/29 01:57:02;;;;;;;8.98;4.47;;;12.80;99.90;;;;;;5051671;28;20123;-74
2023/08/29 01:59:29;;;;;;;10.48;4.85;;;12.80;99.90;;;;;;5051838;28;20395;-74
2023/08/29 02:01:57;;;;;;;8.35;4.63;;;12.80;99.90;;;;;;5051520;28;20057;-74
2023/08/29 02:04:22;;;;;;;8.45;4.50;;;12.70;99.90;;;;;;5051856;28;20396;-74
2023/08/29 02:06:49;;;;;;;10.95;5.00;;;12.80;99.90;;;;;;5051859;28;20581;-74
2023/08/29 02:09:16;;;;;;;9.10;4.43;;;12.70;99.90;;;;;;5053040;28;20049;-74
2023/08/29 02:11:41;;;;;;;7.57;4.22;;;12.70;99.90;;;;;;5055333;28;20041;-74
2023/08/29 02:14:07;;;;;;;14.60;4.57;;;12.70;99.90;;;;;;5055072;28;20561;-74
2023/08/29 02:16:33;;;;;;;11.68;4.60;;;12.70;99.90;;;;;;5055056;28;20047;-74
2023/08/29 02:18:58;;;;;;;9.07;4.00;;;12.70;99.90;;;;;;5055031;28;20044;-74
2023/08/29 02:21:24;;;;;;;9.38;4.50;;;12.60;99.90;;;;;;5054834;28;20084;-74
2023/08/29 02:23:49;;;;;;;9.18;4.45;;;12.60;99.90;;;;;;5054993;28;20037;-74
2023/08/29 02:26:15;;;;;;;7.95;3.97;;;12.70;99.90;;;;;;5055040;28;20068;-74
2023/08/29 02:28:41;;;;;;;8.77;4.18;;;12.60;99.90;;;;;;5054725;28;20041;-74
2023/08/29 02:31:09;;;;;;;9.57;5.13;;;12.60;99.90;;;;;;5054988;28;20044;-74
2023/08/29 02:33:37;;;;;;;8.48;4.25;;;12.60;99.90;;;;;;5054792;28;20139;-74
2023/08/29 02:36:06;;;;;;;8.88;3.60;;;12.60;99.90;;;;;;5054978;28;20502;-74
2023/08/29 02:38:35;;;;;;;9.77;4.00;;;12.60;99.90;;;;;;5054804;28;20391;-74
2023/08/29 02:41:01;;;;;;;9.60;3.90;;;12.60;99.90;;;;;;5054457;28;20072;-74
2023/08/29 02:43:27;;;;;;;7.88;4.22;;;12.60;99.90;;;;;;5055797;28;20374;-74
2023/08/29 02:45:53;;;;;;;7.65;4.15;;;12.50;99.90;;;;;;5055815;28;20033;-74
2023/08/29 02:48:19;;;;;;;8.20;4.40;;;12.50;99.90;;;;;;5054104;28;20455;-75
2023/08/29 02:50:50;;;;;;;6.90;3.25;;;12.50;99.90;;;;;;5054315;28;20480;-75
2023/08/29 02:53:17;;;;;;;7.50;3.58;;;12.50;99.90;;;;;;5054620;28;20072;-74
2023/08/29 02:55:42;;;;;;;6.25;3.42;;;12.40;99.90;;;;;;5054286;28;20112;-74
2023/08/29 02:58:11;;;;;;;9.05;3.80;;;12.40;99.90;;;;;;5054306;28;20060;-74
2023/08/29 03:00:36;;;;;;;7.28;3.45;;;12.40;99.90;;;;;;5055541;28;20531;-74
2023/08/29 03:03:05;;;;;;;8.50;3.53;;;12.40;99.90;;;;;;5055444;28;20127;-74
2023/08/29 03:05:31;;;;;;;7.68;3.95;;;12.40;99.90;;;;;;5054241;28;20052;-74
2023/08/29 03:07:57;;;;;;;7.43;3.25;;;12.40;99.90;;;;;;5053973;28;20045;-74
2023/08/29 03:10:23;;;;;;;10.15;3.40;;;12.30;99.90;;;;;;5055241;28;20087;-74
2023/08/29 03:12:52;;;;;;;6.88;3.40;;;12.30;99.90;;;;;;5054003;28;20039;-74
2023/08/29 03:15:21;;;;;;;8.18;3.60;;;12.30;99.90;;;;;;5054291;28;20045;-74
2023/08/29 03:17:47;;;;;;;5.05;2.80;;;12.20;99.90;;;;;;5053955;28;20037;-74
2023/08/29 03:20:13;;;;;;;10.60;3.92;;;12.20;99.90;;;;;;5053519;28;20424;-74
2023/08/29 03:22:38;;;;;;;6.65;3.30;;;12.30;99.90;;;;;;5053707;28;20053;-74
2023/08/29 03:25:07;;;;;;;7.32;3.72;;;12.30;99.90;;;;;;5054000;28;20041;-74
2023/08/29 03:27:33;;;;;;;9.40;5.03;;;12.30;99.90;;;;;;5053671;28;20053;-74
2023/08/29 03:29:59;;;;;;;9.75;4.13;;;12.30;99.90;;;;;;5053720;28;20048;-75
2023/08/29 03:32:24;;;;;;;10.00;3.85;;;12.30;99.90;;;;;;5053768;28;20049;-74
2023/08/29 03:34:58;;;;;;;8.65;4.40;;;12.30;99.90;;;;;;5054724;28;20095;-74
2023/08/29 03:37:23;;;;;;;8.48;3.90;;;12.30;99.90;;;;;;5053495;28;20060;-74
2023/08/29 03:39:54;;;;;;;5.75;3.38;;;12.30;99.90;;;;;;5053584;28;20045;-74
2023/08/29 03:42:20;;;;;;;10.60;3.28;;;12.30;99.90;;;;;;5053546;28;20118;-74
2023/08/29 03:44:45;;;;;;;7.75;3.75;;;12.30;99.90;;;;;;5053586;28;20091;-74
2023/08/29 03:47:15;;;;;;;9.10;4.25;;;12.20;99.90;;;;;;5052893;28;20079;-74
2023/08/29 03:49:40;;;;;;;9.18;4.80;;;12.20;99.90;;;;;;5052403;28;20146;-74
2023/08/29 03:52:06;;;;;;;6.70;3.50;;;12.10;99.90;;;;;;5053037;28;20090;-74
2023/08/29 03:54:31;;;;;;;9.50;4.10;;;12.10;99.90;;;;;;5053198;28;20072;-74
2023/08/29 03:56:57;;;;;;;8.32;3.85;;;12.10;99.90;;;;;;5053208;28;20048;-74
2023/08/29 03:59:25;;;;;;;10.13;4.18;;;12.10;99.90;;;;;;5053111;28;20049;-75
2023/08/29 04:01:51;;;;;;;8.45;4.30;;;12.10;99.90;;;;;;5052899;28;20487;-74
2023/08/29 04:04:17;;;;;;;9.15;4.40;;;12.10;99.90;;;;;;5052917;28;20049;-74
2023/08/29 04:06:42;;;;;;;7.35;3.75;;;12.10;99.90;;;;;;5052863;28;20148;-74
2023/08/29 04:09:08;;;;;;;9.30;3.90;;;12.20;99.90;;;;;;5053009;28;20072;-74
2023/08/29 04:11:34;;;;;;;9.13;4.10;;;12.10;99.90;;;;;;5053174;28;20044;-74
2023/08/29 04:14:01;;;;;;;9.52;3.70;;;12.20;99.90;;;;;;5052718;28;20384;-74
2023/08/29 04:16:27;;;;;;;11.15;4.68;;;12.20;99.90;;;;;;5054069;28;20048;-74
2023/08/29 04:18:52;;;;;;;10.15;4.00;;;12.30;99.90;;;;;;5052718;28;20052;-74
2023/08/29 04:21:21;;;;;;;8.48;3.97;;;12.30;99.90;;;;;;5052730;28;20045;-74
2023/08/29 04:23:46;;;;;;;9.27;4.10;;;12.30;99.90;;;;;;5052757;28;20385;-74
2023/08/29 04:26:12;;;;;;;9.27;4.15;;;12.30;99.90;;;;;;5052966;28;20376;-74
2023/08/29 04:28:38;;;;;;;7.53;3.63;;;12.30;99.90;;;;;;5052526;28;20452;-74
2023/08/29 04:31:13;;;;;;;9.40;3.70;;;12.30;99.90;;;;;;5053238;28;20040;-74
2023/08/29 04:33:39;;;;;;;6.85;3.35;;;12.20;99.90;;;;;;5052284;28;20400;-74
2023/08/29 04:36:04;;;;;;;7.43;3.70;;;12.20;99.90;;;;;;5052543;28;20130;-74
2023/08/29 04:38:33;;;;;;;6.50;3.20;;;12.10;99.90;;;;;;5052511;28;20075;-75
2023/08/29 04:40:58;;;;;;;6.95;3.47;;;12.10;99.90;;;;;;5051337;28;20400;-74
2023/08/29 04:43:24;;;;;;;7.68;3.28;;;12.10;99.90;;;;;;5051579;28;20103;-74
2023/08/29 04:45:51;;;;;;;9.55;3.78;;;12.10;99.90;;;;;;5052354;28;20048;-74
2023/08/29 04:48:17;;;;;;;7.95;3.70;;;12.10;99.90;;;;;;5052416;28;20142;-74
2023/08/29 04:50:45;;;;;;;10.48;3.90;;;12.20;99.90;;;;;;5052162;28;20053;-74
2023/08/29 04:53:13;;;;;;;9.43;4.20;;;12.30;99.90;;;;;;5052035;28;20045;-74
2023/08/29 04:55:39;;;;;;;9.32;3.67;;;12.20;99.90;;;;;;5035456;28;20670;-74
2023/08/29 04:58:05;;;;;;;7.75;3.78;;;12.20;99.90;;;;;;5052369;28;20044;-75
2023/08/29 05:00:30;;;;;;;9.43;3.33;;;12.20;99.90;;;;;;5052044;28;20037;-75
2023/08/29 05:02:56;;;;;;;8.60;3.88;;;12.20;99.90;;;;;;5051818;28;20065;-74
2023/08/29 05:05:22;;;;;;;9.05;3.55;;;12.20;99.90;;;;;;5051919;28;20079;-75
2023/08/29 05:07:48;;;;;;;7.32;3.55;;;12.20;99.90;;;;;;5053226;28;20049;-74
2023/08/29 05:10:13;;;;;;;8.90;3.85;;;12.20;99.90;;;;;;5052077;28;20411;-74
2023/08/29 05:12:41;;;;;;;12.88;4.68;;;12.20;99.90;;;;;;5052174;28;20049;-75
2023/08/29 05:15:07;;;;;;;8.75;3.95;;;12.30;99.90;;;;;;5051956;28;20049;-75
2023/08/29 05:17:33;;;;;;;8.18;3.58;;;12.30;99.90;;;;;;5051724;28;20088;-75
2023/08/29 05:19:58;;;;;;;7.55;3.83;;;12.30;99.90;;;;;;5051840;28;20080;-75
2023/08/29 05:22:24;;;;;;;12.40;4.82;;;12.30;99.90;;;;;;5051564;28;20128;-74
2023/08/29 05:24:50;;;;;;;9.85;4.00;;;12.40;99.90;;;;;;5051778;28;20053;-75
2023/08/29 05:27:15;;;;;;;8.00;3.40;;;12.40;99.90;;;;;;5051737;28;20053;-75
2023/08/29 05:29:41;;;;;;;7.55;3.55;;;12.40;99.90;;;;;;5052058;28;20048;-75
2023/08/29 05:32:07;;;;;;;9.88;4.00;;;12.40;99.90;;;;;;5052082;28;20095;-74
2023/08/29 05:34:33;;;;;;;9.43;3.97;;;12.50;99.90;;;;;;5051619;28;20041;-75
2023/08/29 05:37:02;;;;;;;7.65;3.65;;;12.50;99.90;;;;;;5051870;28;20053;-74
2023/08/29 05:39:28;;;;;;;10.48;4.18;;;12.50;99.90;;;;;;5051594;28;20493;-74
2023/08/29 05:41:54;;;;;;;8.18;3.95;;;12.60;99.90;;;;;;5051457;28;20091;-74
2023/08/29 05:44:19;;;;;;;9.45;4.57;;;12.70;99.90;;;;;;5054989;28;20125;-74
2023/08/29 05:46:45;;;;;;;8.93;3.40;;;12.70;99.90;;;;;;5055641;28;20076;-74
2023/08/29 05:49:10;;;;;;;8.98;4.00;;;12.80;99.90;;;;;;5055205;28;20408;-74
2023/08/29 05:51:36;;;;;;;6.72;3.40;;;12.90;99.90;;;;;;5071922;28;20060;-74
2023/08/29 05:54:02;;;;;;;7.55;3.45;;;13.00;99.90;;;;;;5055225;28;20040;-74
2023/08/29 05:56:28;;;;;;;8.75;3.70;;;13.10;99.90;;;;;;5055498;28;20159;-74
2023/08/29 05:58:54;;;;;;;8.88;3.75;;;13.20;99.90;;;;;;5055390;28;20048;-74
2023/08/29 06:01:20;;;;;;;10.05;3.80;;;13.30;99.90;;;;;;5055165;28;20055;-74
2023/08/29 06:03:47;;;;;;;9.00;4.15;;;13.40;99.90;;;;;;5054986;28;20385;-74
2023/08/29 06:06:16;;;;;;;10.85;4.18;;;13.50;99.90;;;;;;5055141;28;20515;-74
2023/08/29 06:08:41;;;;;;;7.70;3.50;;;13.70;99.90;;;;;;5054748;28;20374;-74
2023/08/29 06:11:07;;;;;;;8.23;3.63;;;13.90;99.90;;;;;;5054876;28;20128;-73
2023/08/29 06:13:33;;;;;;;9.63;3.42;;;14.10;99.90;;;;;;5055093;28;20048;-73
2023/08/29 06:15:58;;;;;;;8.95;3.60;;;14.20;99.90;;;;;;5056292;28;20479;-73
2023/08/29 06:18:27;;;;;;;6.97;3.22;;;14.40;99.90;;;;;;5055047;28;20049;-73
2023/08/29 06:20:52;;;;;;;7.63;3.08;;;14.70;99.90;;;;;;5054709;28;20082;-74
2023/08/29 06:23:18;;;;;;;8.32;3.20;;;14.90;99.90;;;;;;5055052;28;20052;-74
2023/08/29 06:25:44;;;;;;;5.93;2.80;;;15.10;99.90;;;;;;5054704;28;20041;-75
2023/08/29 06:28:10;;;;;;;9.00;2.55;;;15.20;99.90;;;;;;5054817;28;20407;-73
2023/08/29 06:30:36;;;;;;;4.63;2.33;;;15.40;99.90;;;;;;5053256;28;20037;-72
2023/08/29 06:33:01;;;;;;;7.07;2.53;;;15.40;99.90;;;;;;5055776;28;20056;-73
2023/08/29 06:35:27;;;;;;;9.10;3.10;;;15.50;99.90;;;;;;5054759;28;20045;-73
2023/08/29 06:37:55;;;;;;;6.85;3.60;;;15.50;99.90;;;;;;5056005;28;20562;-73
2023/08/29 06:40:21;;;;;;;6.22;3.17;;;15.50;99.90;;;;;;5055923;28;20037;-73
2023/08/29 06:42:49;;;;;;;9.65;4.00;;;15.40;99.90;;;;;;5054276;28;20106;-73
2023/08/29 06:45:15;;;;;;;11.18;4.47;;;15.40;99.90;;;;;;5048758;28;20037;-73
2023/08/29 06:47:44;;;;;;;8.85;4.55;;;15.40;99.90;;;;;;5046801;28;20060;-74
2023/08/29 06:50:09;;;;;;;8.85;4.25;;;15.30;99.90;;;;;;5053058;28;20053;-73
2023/08/29 06:52:35;;;;;;;9.93;4.85;;;15.20;99.90;;;;;;5053983;28;20044;-72
2023/08/29 06:55:02;;;;;;;12.05;5.93;;;15.30;99.90;;;;;;5053351;28;20057;-72
2023/08/29 06:57:28;;;;;;;9.23;4.47;;;15.30;99.90;;;;;;5053901;28;20076;-73
2023/08/29 06:59:54;;;;;;;30.92;21.52;;;15.20;99.90;;;;;;5053881;28;20075;-73
2023/08/29 07:02:19;;;;;;;9.65;5.53;;;15.30;99.90;;;;;;5054852;28;20044;-72
2023/08/29 07:04:46;;;;;;;9.80;4.90;;;15.40;99.90;;;;;;5053755;28;20045;-73
2023/08/29 07:07:11;;;;;;;8.80;4.22;;;15.40;99.90;;;;;;5054844;28;20512;-73
2023/08/29 07:09:37;;;;;;;9.05;4.53;;;15.40;99.90;;;;;;5052418;28;20087;-73
2023/08/29 07:12:03;;;;;;;7.20;3.95;;;15.50;99.90;;;;;;5053042;28;20163;-73
2023/08/29 07:14:30;;;;;;;11.52;4.28;;;15.50;99.90;;;;;;5053078;28;20404;-73
2023/08/29 07:16:58;;;;;;;7.20;4.05;;;15.60;99.90;;;;;;5053646;28;20091;-73
2023/08/29 07:19:28;;;;;;;9.13;4.75;;;15.70;99.90;;;;;;5052993;28;20056;-73
2023/08/29 07:21:54;;;;;;;7.88;3.70;;;15.80;99.90;;;;;;5053622;28;20052;-73
2023/08/29 07:24:19;;;;;;;5.75;3.17;;;15.90;99.90;;;;;;5052828;28;20131;-73
2023/08/29 07:26:45;;;;;;;7.72;3.50;;;16.00;99.90;;;;;;5053091;28;20052;-73
2023/08/29 07:29:11;;;;;;;7.88;3.20;;;16.10;99.90;;;;;;5053430;28;20052;-73
2023/08/29 07:31:36;;;;;;;7.75;3.28;;;16.20;99.90;;;;;;5052690;28;20155;-73
2023/08/29 07:34:02;;;;;;;6.95;3.20;;;16.30;99.90;;;;;;5052839;28;20063;-73
2023/08/29 07:36:28;;;;;;;6.80;2.60;;;16.50;99.90;;;;;;5053018;28;20041;-73
2023/08/29 07:38:53;;;;;;;4.35;2.13;;;16.50;99.90;;;;;;5052373;28;20041;-73
2023/08/29 07:41:19;;;;;;;5.68;2.03;;;16.60;99.90;;;;;;5052608;28;20041;-74
2023/08/29 07:43:47;;;;;;;4.13;1.65;;;16.60;99.90;;;;;;5053218;28;20052;-74
2023/08/29 07:46:13;;;;;;;3.58;1.55;;;16.60;99.90;;;;;;5052297;28;20459;-74
2023/08/29 07:48:38;;;;;;;4.22;1.63;;;16.60;99.90;;;;;;5053280;28;20057;-74
2023/08/29 07:51:04;;;;;;;3.58;1.38;;;16.80;99.90;;;;;;5052235;28;20561;-73
2023/08/29 07:53:30;;;;;;;3.35;1.30;;;16.70;99.90;;;;;;5052409;28;20036;-73
2023/08/29 07:55:55;;;;;;;3.25;1.70;;;16.80;99.90;;;;;;5052388;28;20045;-73
2023/08/29 07:58:21;;;;;;;3.58;1.67;;;17.00;99.90;;;;;;5052744;28;20056;-73
2023/08/29 08:00:46;;;;;;;4.07;1.90;;;17.10;99.90;;;;;;5052549;28;20095;-72
2023/08/29 08:03:12;;;;;;;3.92;1.98;;;17.30;99.90;;;;;;5052655;28;20044;-72
2023/08/29 08:05:38;;;;;;;4.35;2.22;;;17.40;99.90;;;;;;5052624;28;20041;-72
2023/08/29 08:08:04;;;;;;;3.00;1.70;;;17.40;99.90;;;;;;5052471;28;20148;-74
2023/08/29 08:10:33;;;;;;;6.03;1.65;;;17.50;99.90;;;;;;5052521;28;20464;-73
2023/08/29 08:12:58;;;;;;;3.25;1.42;;;17.40;99.90;;;;;;5052470;28;20075;-73
2023/08/29 08:15:24;;;;;;;4.10;1.40;;;17.50;99.90;;;;;;5052396;28;20041;-73
2023/08/29 08:17:50;;;;;;;2.47;1.05;;;17.50;99.90;;;;;;5052491;28;20076;-73
2023/08/29 08:20:16;;;;;;;3.22;1.00;;;17.60;99.90;;;;;;5052452;28;20116;-73
2023/08/29 08:22:42;;;;;;;2.95;1.23;;;17.60;99.90;;;;;;5052294;28;20053;-73
2023/08/29 08:25:12;;;;;;;2.33;1.05;;;17.60;99.90;;;;;;5052561;28;20040;-79
2023/08/29 08:27:40;;;;;;;3.58;1.27;;;17.60;99.90;;;;;;5052733;28;20060;-72
2023/08/29 08:30:07;;;;;;;3.35;1.20;;;17.60;99.90;;;;;;5051739;28;20044;-74
2023/08/29 08:32:33;;;;;;;4.68;2.25;;;17.60;99.90;;;;;;5051147;28;20498;-74
2023/08/29 08:34:59;;;;;;;3.88;1.70;;;17.50;99.90;;;;;;5051415;28;20143;-74
2023/08/29 08:37:25;;;;;;;2.33;1.17;;;17.50;99.90;;;;;;5051818;28;20091;-74
2023/08/29 08:39:50;;;;;;;5.22;2.10;;;17.50;99.90;;;;;;5051449;28;20551;-74
2023/08/29 08:42:17;;;;;;;3.92;1.67;;;17.40;99.90;;;;;;5051587;28;20488;-74
2023/08/29 08:44:47;;;;;;;4.47;2.20;;;17.50;99.90;;;;;;5050733;28;20053;-74
2023/08/29 08:47:16;;;;;;;5.70;2.47;;;17.40;99.90;;;;;;5051825;28;20049;-74
2023/08/29 08:49:42;;;;;;;4.40;2.80;;;17.40;99.90;;;;;;5052593;28;20053;-74
2023/08/29 08:52:10;;;;;;;6.38;2.58;;;17.40;99.90;;;;;;5051210;28;20045;-74
2023/08/29 08:54:36;;;;;;;5.20;2.95;;;17.40;99.90;;;;;;5051274;28;20044;-74
2023/08/29 08:57:02;;;;;;;6.32;3.47;;;17.50;99.90;;;;;;5050549;28;20061;-74
2023/08/29 08:59:27;;;;;;;6.63;3.55;;;17.40;99.90;;;;;;5051613;28;20052;-73
2023/08/29 09:01:59;;;;;;;4.97;3.53;;;17.40;99.90;;;;;;5051246;28;20053;-73
2023/08/29 09:04:25;;;;;;;6.27;3.83;;;17.50;99.90;;;;;;5051423;28;20102;-73
2023/08/29 09:06:50;;;;;;;7.65;3.67;;;17.50;99.90;;;;;;5053088;28;20291;-73
2023/08/29 09:09:23;;;;;;;5.95;3.50;;;17.60;99.90;;;;;;5052669;28;20049;-73
2023/08/29 09:11:56;;;;;;;5.38;3.40;;;17.60;99.90;;;;;;5051121;28;20045;-73
2023/08/29 09:14:23;;;;;;;7.65;3.88;;;17.70;99.90;;;;;;5051343;28;20059;-73
2023/08/29 09:17:09;;;;;;;5.15;3.97;;;17.70;99.90;;;;;;5048467;28;20131;-73
2023/08/29 09:19:35;;;;;;;6.95;4.25;;;17.70;99.90;;;;;;5044164;28;20049;-73
2023/08/29 09:22:01;;;;;;;5.40;3.95;;;17.80;99.90;;;;;;5056447;28;20060;-73
2023/08/29 09:24:36;;;;;;;7.05;4.55;;;17.80;99.90;;;;;;5055092;28;20043;-73
2023/08/29 09:27:09;;;;;;;6.13;4.40;;;17.90;99.90;;;;;;5054012;28;20072;-73
2023/08/29 09:29:35;;;;;;;8.70;4.43;;;17.90;99.90;;;;;;5053548;28;20044;-73
2023/08/29 09:32:14;;;;;;;6.28;4.07;;;17.90;99.90;;;;;;5046684;28;20037;-73
2023/08/29 09:34:40;;;;;;;5.25;3.60;;;18.00;99.90;;;;;;5041406;28;20041;-73
2023/08/29 09:37:06;;;;;;;7.20;3.53;;;18.10;99.90;;;;;;5035419;28;20049;-73
2023/08/29 09:39:32;;;;;;;6.13;3.70;;;18.10;99.90;;;;;;5054025;28;20480;-73
2023/08/29 09:42:03;;;;;;;4.82;3.40;;;18.10;99.90;;;;;;5054785;28;20044;-73
2023/08/29 09:44:33;;;;;;;6.88;3.67;;;18.20;99.90;;;;;;5054670;28;20091;-73
2023/08/29 09:47:06;;;;;;;7.15;4.18;;;18.20;99.90;;;;;;5035202;28;20049;-72
2023/08/29 09:50:01;;;;;;;6.35;4.05;;;18.20;99.90;;;;;;5035139;28;20111;-79
2023/08/29 09:52:28;;;;;;;7.70;4.15;;;18.40;99.90;;;;;;5022953;28;20112;-80
2023/08/29 09:54:56;;;;;;;5.55;3.70;;;18.40;99.90;;;;;;5038564;28;20073;-72
2023/08/29 09:57:24;;;;;;;5.50;3.55;;;18.50;99.90;;;;;;5056625;28;20068;-71
2023/08/29 09:59:54;;;;;;;6.13;4.13;;;18.50;99.90;;;;;;5056239;28;20045;-72
2023/08/29 10:02:24;;;;;;;6.22;4.30;;;18.50;99.90;;;;;;5056355;28;20124;-72
2023/08/29 10:05:05;;;;;;;8.45;5.10;;;18.60;99.90;;;;;;5055231;28;20052;-73
2023/08/29 10:07:45;;;;;;;7.70;4.82;;;18.50;99.90;;;;;;5055119;28;20041;-73
2023/08/29 10:10:17;;;;;;;7.38;4.50;;;18.50;99.90;;;;;;5042148;28;20480;-74
2023/08/29 10:12:46;;;;;;;7.80;4.68;;;18.50;99.90;;;;;;5053999;28;20057;-74
2023/08/29 10:15:17;;;;;;;7.40;4.35;;;18.50;99.90;;;;;;5056351;28;20045;-73
2023/08/29 10:17:43;;;;;;;7.82;4.40;;;18.50;99.90;;;;;;5054612;28;20495;-73
2023/08/29 10:20:14;;;;;;;6.88;4.60;;;18.50;99.90;;;;;;5054695;28;20496;-73
2023/08/29 10:22:48;;;;;;;6.78;3.95;;;18.60;99.90;;;;;;5054542;28;20123;-73
2023/08/29 10:25:15;;;;;;;7.60;5.05;;;18.60;99.90;;;;;;5056150;28;20080;-73
2023/08/29 10:27:42;;;;;;;6.18;3.90;;;18.60;99.90;;;;;;5053841;28;20076;-74
2023/08/29 10:30:08;;;;;;;6.82;4.40;;;18.60;99.90;;;;;;5053461;28;20087;-75
2023/08/29 10:32:36;;;;;;;6.85;4.22;;;18.70;99.90;;;;;;5054976;28;20057;-75
2023/08/29 10:35:03;;;;;;;6.82;3.90;;;18.80;99.90;;;;;;5054472;28;20104;-75
2023/08/29 10:37:30;;;;;;;7.13;4.07;;;18.90;99.90;;;;;;5054551;28;20056;-75
2023/08/29 10:40:11;;;;;;;7.28;3.80;;;19.00;99.90;;;;;;5054758;28;20052;-75
2023/08/29 10:43:00;;;;;;;6.47;3.90;;;19.00;99.90;;;;;;5054278;28;20044;-75
2023/08/29 10:45:59;;;;;;;6.25;3.75;;;19.00;99.90;;;;;;5054199;28;20448;-75
2023/08/29 10:48:45;;;;;;;7.57;4.60;;;19.10;99.90;;;;;;5055711;28;20049;-75
2023/08/29 10:51:19;;;;;;;6.68;4.20;;;19.20;99.90;;;;;;5054450;28;20381;-75
2023/08/29 10:53:52;;;;;;;7.15;4.80;;;19.20;99.90;;;;;;5054210;28;20045;-75
2023/08/29 10:56:20;;;;;;;6.55;4.85;;;19.20;99.90;;;;;;5054130;28;20118;-75
2023/08/29 10:58:50;;;;;;;6.60;4.30;;;19.20;99.90;;;;;;5054401;28;20058;-75
2023/08/29 11:01:30;;;;;;;6.85;4.15;;;19.30;99.90;;;;;;5054200;28;20151;-75
2023/08/29 11:04:00;;;;;;;9.20;4.25;;;19.30;99.90;;;;;;5054242;28;20045;-75
2023/08/29 11:06:47;;;;;;;6.80;4.03;;;19.30;99.90;;;;;;5055240;28;20484;-75
2023/08/29 11:09:24;;;;;;;7.20;3.20;;;19.30;99.90;;;;;;5053700;28;20558;-76
2023/08/29 11:12:10;;;;;;;6.25;2.95;;;19.30;99.90;;;;;;5054215;28;20076;-75
2023/08/29 11:14:50;;;;;;;5.68;3.65;;;19.40;99.90;;;;;;5054035;28;20064;-76
2023/08/29 11:17:26;;;;;;;5.75;3.88;;;19.50;99.90;;;;;;5053759;28;20052;-75
2023/08/29 11:20:02;;;;;;;7.38;3.50;;;19.50;99.90;;;;;;5054009;28;20492;-75
2023/08/29 11:22:31;;;;;;;5.40;2.63;;;19.60;99.90;;;;;;5055026;28;20048;-75
2023/08/29 11:24:57;;;;;;;5.43;2.75;;;19.50;99.90;;;;;;5053841;28;20045;-75
2023/08/29 11:27:29;;;;;;;3.63;2.40;;;19.50;99.90;;;;;;5053499;28;20059;-75
2023/08/29 11:29:55;;;;;;;5.80;2.83;;;19.50;99.90;;;;;;5053821;28;20060;-75
2023/08/29 11:32:21;;;;;;;8.88;2.38;;;19.60;99.90;;;;;;5053761;28;20412;-75
2023/08/29 11:34:54;;;;;;;5.55;2.88;;;19.70;99.90;;;;;;5053445;28;20045;-75
2023/08/29 11:37:21;;;;;;;;;;;19.80;99.90;;;;;;5053820;28;20041;-75
2023/08/29 11:40:09;;;;;;;5.43;3.90;;;19.80;99.90;;;;;;5053585;28;19916;-76
2023/08/29 11:42:35;;;;;;;7.32;3.65;;;19.80;99.90;;;;;;5054748;28;20090;-75
2023/08/29 11:45:08;;;;;;;8.88;4.25;;;19.80;99.90;;;;;;5053547;28;20492;-75
2023/08/29 11:47:35;;;;;;;5.43;3.60;;;19.80;99.90;;;;;;5053649;28;20392;-75
2023/08/29 11:50:04;;;;;;;6.97;3.42;;;19.80;99.90;;;;;;5053681;28;20075;-75
2023/08/29 11:52:31;;;;;;;6.28;3.95;;;19.70;99.90;;;;;;5054477;28;20178;-75
2023/08/29 11:54:56;;;;;;;6.47;3.67;;;19.60;99.90;;;;;;5053124;28;20048;-75
2023/08/29 11:57:30;;;;;;;6.75;3.90;;;19.70;99.90;;;;;;5053060;28;20053;-75
2023/08/29 11:59:57;;;;;;;7.53;3.90;;;19.70;99.90;;;;;;5053157;28;20060;-75
2023/08/29 12:02:23;;;;;;;5.55;3.70;;;19.80;99.90;;;;;;5052737;28;20459;-76
2023/08/29 12:04:56;;;;;;;6.60;3.70;;;19.70;99.90;;;;;;5052982;28;20492;-75
2023/08/29 12:07:21;;;;;;;8.18;3.92;;;19.80;99.90;;;;;;5053137;28;20048;-75
2023/08/29 12:09:52;;;;;;;6.15;3.80;;;19.80;99.90;;;;;;5054209;28;20395;-75
2023/08/29 12:12:32;;;;;;;7.75;4.00;;;19.90;99.90;;;;;;5054349;28;20045;-75
2023/08/29 12:14:59;;;;;;;5.75;3.70;;;19.90;99.90;;;;;;5053982;28;20045;-76
2023/08/29 12:17:54;;;;;;;9.18;4.35;;;20.00;99.90;;;;;;5054118;28;20044;-75
2023/08/29 12:20:20;;;;;;;7.45;4.20;;;19.90;99.90;;;;;;5000928;28;20168;-77
2023/08/29 12:22:50;;;;;;;6.97;3.70;;;19.90;99.90;;;;;;5052530;28;20136;-77
2023/08/29 12:25:16;;;;;;;7.63;3.60;;;19.90;99.90;;;;;;5052598;28;20045;-77
2023/08/29 12:27:44;;;;;;;6.55;4.07;;;19.90;99.90;;;;;;5053698;28;20052;-77
2023/08/29 12:30:14;;;;;;;6.78;3.75;;;20.00;99.90;;;;;;5052724;28;20049;-76
2023/08/29 12:32:44;;;;;;;5.82;2.92;;;19.90;99.90;;;;;;5052685;28;20053;-75
2023/08/29 12:35:10;;;;;;;7.88;2.90;;;20.00;99.90;;;;;;5053597;28;20127;-75
2023/08/29 12:37:36;;;;;;;7.28;4.63;;;20.00;99.90;;;;;;5052529;28;20415;-75
2023/08/29 12:40:08;;;;;;;10.25;5.32;;;20.10;99.90;;;;;;5053438;28;20055;-79
2023/08/29 12:42:37;;;;;;;7.10;2.80;;;20.20;99.90;;;;;;5052520;28;20514;-76
2023/08/29 12:45:03;;;;;;;4.80;2.80;;;20.20;99.90;;;;;;5052275;28;20056;-79
2023/08/29 12:47:32;;;;;;;6.95;2.83;;;20.40;99.90;;;;;;5052094;28;20102;-78
2023/08/29 12:50:00;;;;;;;6.43;3.28;;;20.40;99.90;;;;;;5052116;28;20377;-78